»·PEaware :: SWA1426 KMRY-KSNA

SWA1426 :: KMRY-KSNA

FLIGHT INFORMATION

Flight Status: Arrived
Operator:
Southwest Airlines
More flights by this operator :: More flights under this callsign
Pilot: Chris S. (2433)
Aircraft: BOEING 737-800
(B738)
More flights by this aircraft type
Origin: KMRY Monterey Peninsula
United States
Destination: KSNA John Wayne-Orange Co
United States
More flights between these airports :: More routes between these airports
Route: +MRY5 SNS PRB RDHOT OSHEA2
File this flight plan on PilotEdge
Remarks:
Altitude:
(Current/Filed)
39,000ft
Speed:
(Current/Filed)
450kts
Departed: 12-Nov-19 08:59 AM
Arrived: 12-Nov-19 09:56 AM
Distance/Time
Traveled:
262nm/0:56
Distance/Time
To Go:
Arrived

Flight Plot

Page will automatically refresh every two minutes.

Flight plan parsing failed; only flown route is shown


Map Options




Map Legend


Flown Route
Filed Route
Departure Airport
Arrival Airport
Navaid (VOR, NDB)
Fix

Horizontal Profiles

Position Reports

Time Latitude Longitude Heading Altitude Ground
Speed
12-Nov-19 08:36 36.587457 -121.850340 205 211ft 0kts
12-Nov-19 08:37 36.587457 -121.850340 205 211ft 0kts
12-Nov-19 08:38 36.587457 -121.850340 205 211ft 0kts
12-Nov-19 08:39 36.587457 -121.850340 205 211ft 0kts
12-Nov-19 08:40 36.587457 -121.850340 205 211ft 0kts
12-Nov-19 08:41 36.587457 -121.850340 205 211ft 0kts
12-Nov-19 08:42 36.587457 -121.850340 205 211ft 0kts
12-Nov-19 08:43 36.587457 -121.850340 205 211ft 0kts
12-Nov-19 08:44 36.587457 -121.850340 205 211ft 0kts
12-Nov-19 08:45 36.587457 -121.850340 205 211ft 0kts
12-Nov-19 08:46 36.587457 -121.850340 205 211ft 0kts
12-Nov-19 08:47 36.587457 -121.850340 205 211ft 0kts
12-Nov-19 08:48 36.587457 -121.850340 205 211ft 0kts
12-Nov-19 08:49 36.587468 -121.850335 205 211ft 2kts
12-Nov-19 08:50 36.588147 -121.850328 105 211ft 1kts
12-Nov-19 08:51 36.588140 -121.850536 74 211ft 0kts
12-Nov-19 08:52 36.588140 -121.850535 74 211ft 0kts
12-Nov-19 08:53 36.587452 -121.848893 111 211ft 12kts
12-Nov-19 08:54 36.586214 -121.845250 115 211ft 10kts
12-Nov-19 08:55 36.585043 -121.841928 112 211ft 16kts
12-Nov-19 08:56 36.583014 -121.836087 113 211ft 17kts
12-Nov-19 08:57 36.583358 -121.833623 291 211ft 0kts
12-Nov-19 08:58 36.592127 -121.859452 293 490ft 157kts
12-Nov-19 08:59 36.611533 -121.913409 294 2713ft 193kts
12-Nov-19 09:00 36.666621 -121.935747 32 4392ft 273kts
12-Nov-19 09:01 36.684591 -121.848624 95 7430ft 284kts
12-Nov-19 09:02 36.676271 -121.748031 95 10249ft 299kts
12-Nov-19 09:03 36.666276 -121.636084 100 11710ft 357kts
12-Nov-19 09:04 36.602502 -121.539865 141 14190ft 376kts
12-Nov-19 09:05 36.518249 -121.457782 141 16718ft 391kts
12-Nov-19 09:06 36.435701 -121.376272 141 18882ft 406kts
12-Nov-19 09:07 36.341417 -121.282500 141 21048ft 423kts
12-Nov-19 09:08 36.247907 -121.189861 141 22887ft 438kts
12-Nov-19 09:09 36.150836 -121.094173 142 24606ft 452kts
12-Nov-19 09:10 36.051109 -120.996206 141 26152ft 465kts
12-Nov-19 09:11 35.948401 -120.895653 141 27640ft 475kts
12-Nov-19 09:12 35.844040 -120.793489 141 28906ft 485kts
12-Nov-19 09:13 35.736987 -120.689613 141 30120ft 493kts
12-Nov-19 09:14 35.652207 -120.559367 111 31581ft 487kts
12-Nov-19 09:15 35.604588 -120.404444 114 32958ft 487kts
12-Nov-19 09:16 35.514863 -120.281008 140 34248ft 489kts
12-Nov-19 09:17 35.408424 -120.176182 141 35182ft 494kts
12-Nov-19 09:18 35.301940 -120.069998 140 35190ft 490kts
12-Nov-19 09:19 35.195898 -119.964441 140 35188ft 491kts
12-Nov-19 09:20 35.089828 -119.859734 140 35182ft 491kts
12-Nov-19 09:21 34.990157 -119.746330 133 35181ft 489kts
12-Nov-19 09:22 34.894672 -119.630525 134 35181ft 483kts
12-Nov-19 09:23 34.800456 -119.516559 134 33812ft 477kts
12-Nov-19 09:24 34.706902 -119.404718 134 31985ft 463kts
12-Nov-19 09:25 34.616437 -119.296626 133 30304ft 448kts
12-Nov-19 09:26 34.528983 -119.191688 133 28659ft 436kts
12-Nov-19 09:27 34.443794 -119.091633 134 27255ft 420kts
12-Nov-19 09:28 34.356963 -118.991422 134 24599ft 434kts
12-Nov-19 09:29 34.270638 -118.893115 134 22673ft 419kts
12-Nov-19 09:30 34.172625 -118.822452 161 20608ft 410kts
12-Nov-19 09:31 34.065579 -118.781255 160 18553ft 397kts
12-Nov-19 09:32 33.961150 -118.740860 160 16261ft 392kts
12-Nov-19 09:33 33.859067 -118.701397 160 14261ft 377kts
12-Nov-19 09:34 33.762459 -118.664199 160 13007ft 343kts
12-Nov-19 09:35 33.674042 -118.632396 162 11899ft 326kts
12-Nov-19 09:36 33.592819 -118.593077 133 10581ft 306kts
12-Nov-19 09:37 33.546229 -118.511761 121 9348ft 291kts
12-Nov-19 09:38 33.520190 -118.424605 92 8161ft 277kts
12-Nov-19 09:39 33.519986 -118.333280 80 7027ft 270kts
12-Nov-19 09:40 33.544613 -118.249478 69 5937ft 263kts
12-Nov-19 09:41 33.572084 -118.169213 60 5021ft 258kts
12-Nov-19 09:42 33.612109 -118.098003 56 4999ft 259kts
12-Nov-19 09:43 33.652198 -118.026119 56 4994ft 259kts
12-Nov-19 09:44 33.692965 -117.954384 47 4991ft 260kts
12-Nov-19 09:45 33.754653 -117.909065 27 4996ft 261kts
12-Nov-19 09:46 33.817192 -117.869486 28 4878ft 238kts
12-Nov-19 09:47 33.870672 -117.835150 28 4420ft 202kts
12-Nov-19 09:48 33.915838 -117.801587 65 3907ft 178kts
12-Nov-19 09:49 33.896073 -117.754670 170 2966ft 178kts
12-Nov-19 09:50 33.847511 -117.759152 199 2996ft 176kts
12-Nov-19 09:51 33.805764 -117.786185 207 2755ft 162kts
12-Nov-19 09:52 33.767980 -117.810283 207 1945ft 150kts
12-Nov-19 09:53 33.731445 -117.833479 207 1157ft 147kts
12-Nov-19 09:54 33.695387 -117.856424 208 357ft 148kts
12-Nov-19 09:55 33.669750 -117.872607 200 64ft 13kts
12-Nov-19 09:56 33.669109 -117.872127 123 64ft 0kts
12-Nov-19 09:57 33.668984 -117.871904 123 64ft 4kts
12-Nov-19 09:58 33.670373 -117.870047 38 64ft 11kts
12-Nov-19 09:59 33.672968 -117.867176 46 64ft 12kts
12-Nov-19 10:00 33.676801 -117.864553 20 64ft 21kts
12-Nov-19 10:01 33.678567 -117.862706 117 64ft 0kts
12-Nov-19 10:02 33.678567 -117.862706 117 64ft 0kts
12-Nov-19 10:03 33.678567 -117.862706 117 64ft 0kts
12-Nov-19 10:04 33.678567 -117.862706 117 64ft 0kts
12-Nov-19 10:05 33.678567 -117.862706 117 64ft 0kts
12-Nov-19 10:06 33.678567 -117.862706 117 64ft 0kts
12-Nov-19 10:07 33.678567 -117.862706 117 64ft 0kts
12-Nov-19 10:08 33.678567 -117.862706 117 64ft 0kts

Navigation Log

Ident Type
Flight plan parsing failed, navigation log unavailable